Time;durP1;ratioP1;P1;durP2;ratioP2;P2;SDS_P1;SDS_P2;PMS_P1;PMS_P2;Temp;Humidity;BMP_temperature;BMP_pressure;BME280_temperature;BME280_humidity;BME280_pressure;Samples;Min_cycle;Max_cycle;Signal;HPM_P1;HPM_P2
2022/07/27 00:02:07;;;;;;;4.72;1.00;;;17.50;63.60;;;;;;5115911;28;20032;-74
2022/07/27 00:04:33;;;;;;;2.10;1.00;;;17.50;63.60;;;;;;5115865;28;20089;-75
2022/07/27 00:06:58;;;;;;;5.45;1.10;;;17.50;63.30;;;;;;5097892;28;20051;-75
2022/07/27 00:09:24;;;;;;;1.85;1.00;;;17.50;63.10;;;;;;5115789;28;20020;-75
2022/07/27 00:11:49;;;;;;;3.20;1.60;;;17.40;63.20;;;;;;5115481;28;20055;-75
2022/07/27 00:14:15;;;;;;;3.60;1.00;;;17.40;63.30;;;;;;5115662;28;20032;-75
2022/07/27 00:16:41;;;;;;;1.63;0.85;;;17.30;63.70;;;;;;5115620;28;20032;-75
2022/07/27 00:19:06;;;;;;;2.60;0.90;;;17.30;64.00;;;;;;5115581;28;20046;-75
2022/07/27 00:21:32;;;;;;;1.08;0.77;;;17.30;64.10;;;;;;5115550;28;20043;-75
2022/07/27 00:23:57;;;;;;;3.75;1.08;;;17.30;63.80;;;;;;5097686;28;20050;-75
2022/07/27 00:26:23;;;;;;;2.20;1.17;;;17.30;63.50;;;;;;5114788;28;20391;-75
2022/07/27 00:28:49;;;;;;;3.65;1.23;;;17.30;63.70;;;;;;5115346;28;20031;-75
2022/07/27 00:31:15;;;;;;;1.02;0.75;;;17.30;63.40;;;;;;5115295;28;20356;-75
2022/07/27 00:33:41;;;;;;;1.73;0.80;;;17.20;63.60;;;;;;5115320;28;20054;-75
2022/07/27 00:36:07;;;;;;;2.15;0.80;;;17.10;64.00;;;;;;5115246;28;20028;-75
2022/07/27 00:38:32;;;;;;;5.15;1.23;;;17.00;64.00;;;;;;5115347;28;20024;-75
2022/07/27 00:40:58;;;;;;;1.23;0.80;;;16.90;64.10;;;;;;5115162;28;20051;-75
2022/07/27 00:43:23;;;;;;;2.55;0.80;;;16.90;64.20;;;;;;5115112;28;20115;-75
2022/07/27 00:45:49;;;;;;;1.98;0.90;;;16.90;63.90;;;;;;5115045;28;20032;-75
2022/07/27 00:48:15;;;;;;;2.42;1.13;;;16.90;64.00;;;;;;5115148;28;20064;-75
2022/07/27 00:50:42;;;;;;;1.45;0.85;;;16.80;64.40;;;;;;5114879;28;20040;-74
2022/07/27 00:53:08;;;;;;;1.67;0.93;;;16.70;64.40;;;;;;5115050;28;20051;-74
2022/07/27 00:55:34;;;;;;;2.78;0.90;;;16.70;64.80;;;;;;5114882;28;20028;-74
2022/07/27 00:58:03;;;;;;;2.97;0.90;;;16.60;65.10;;;;;;5114826;28;20068;-75
2022/07/27 01:00:29;;;;;;;2.45;1.00;;;16.60;65.20;;;;;;5114771;28;20020;-75
2022/07/27 01:02:55;;;;;;;1.92;1.10;;;16.60;65.00;;;;;;5114756;28;20157;-75
2022/07/27 01:05:20;;;;;;;4.00;0.88;;;16.60;65.10;;;;;;5096727;28;20032;-75
2022/07/27 01:07:47;;;;;;;3.22;0.95;;;16.60;65.00;;;;;;5114644;28;20036;-75
2022/07/27 01:10:13;;;;;;;2.03;1.40;;;16.60;65.80;;;;;;5114352;28;20040;-75
2022/07/27 01:12:39;;;;;;;1.98;0.90;;;16.60;64.90;;;;;;5114581;28;20031;-75
2022/07/27 01:15:05;;;;;;;2.28;1.02;;;16.60;64.70;;;;;;5114645;28;20079;-75
2022/07/27 01:17:32;;;;;;;1.58;0.98;;;16.60;64.80;;;;;;5114600;28;20062;-75
2022/07/27 01:19:58;;;;;;;6.07;1.00;;;16.50;64.40;;;;;;5114397;28;20024;-75
2022/07/27 01:22:23;;;;;;;1.85;1.05;;;16.50;64.90;;;;;;5114385;28;20023;-75
2022/07/27 01:24:49;;;;;;;2.15;0.90;;;16.40;65.00;;;;;;5096383;28;20028;-74
2022/07/27 01:27:15;;;;;;;2.75;0.90;;;16.40;64.80;;;;;;5114450;28;20054;-75
2022/07/27 01:29:41;;;;;;;2.25;0.85;;;16.40;64.90;;;;;;5114185;28;20051;-75
2022/07/27 01:32:07;;;;;;;2.25;1.13;;;16.30;65.10;;;;;;5096353;28;20046;-75
2022/07/27 01:34:33;;;;;;;2.85;1.23;;;16.30;65.20;;;;;;5114177;28;20024;-75
2022/07/27 01:37:01;;;;;;;4.93;1.27;;;16.20;65.60;;;;;;5113924;28;20024;-75
2022/07/27 01:39:26;;;;;;;5.22;1.55;;;16.20;65.80;;;;;;5095534;28;20169;-74
2022/07/27 01:41:52;;;;;;;3.25;1.20;;;16.20;66.50;;;;;;5114032;28;20024;-75
2022/07/27 01:44:18;;;;;;;2.17;0.85;;;16.20;66.80;;;;;;5114012;28;20083;-75
2022/07/27 01:46:44;;;;;;;5.68;1.23;;;16.00;66.30;;;;;;5096001;28;20031;-75
2022/07/27 01:49:10;;;;;;;2.40;1.05;;;15.90;66.20;;;;;;5113953;28;20035;-74
2022/07/27 01:51:35;;;;;;;1.33;1.05;;;15.90;66.20;;;;;;5113830;28;20022;-74
2022/07/27 01:54:01;;;;;;;3.30;0.93;;;15.90;65.90;;;;;;5113801;28;20032;-74
2022/07/27 01:56:26;;;;;;;3.22;1.17;;;15.90;65.90;;;;;;5095916;28;20032;-74
2022/07/27 01:58:53;;;;;;;1.25;1.08;;;15.80;66.10;;;;;;5113816;28;20029;-74
2022/07/27 02:01:20;;;;;;;1.65;1.08;;;15.80;66.00;;;;;;5113757;28;20020;-75
2022/07/27 02:03:45;;;;;;;2.28;1.00;;;15.80;66.00;;;;;;5113725;28;20039;-75
2022/07/27 02:06:11;;;;;;;1.48;0.88;;;15.80;66.30;;;;;;5113687;28;20020;-75
2022/07/27 02:08:36;;;;;;;2.83;1.10;;;15.80;66.50;;;;;;5113664;28;20036;-75
2022/07/27 02:14:06;;;;;;;3.38;1.20;;;15.80;65.80;;;;;;5031846;28;20034;-75
2022/07/27 02:16:32;;;;;;;1.73;1.10;;;15.70;66.40;;;;;;5015379;28;20034;-75
2022/07/27 02:18:58;;;;;;;1.73;1.10;;;15.70;66.40;;;;;;5069564;28;20037;-75
2022/07/27 02:21:23;;;;;;;2.33;1.00;;;15.70;66.50;;;;;;5113483;28;20055;-75
2022/07/27 02:23:49;;;;;;;2.65;1.35;;;15.70;66.40;;;;;;5095590;28;20050;-74
2022/07/27 02:26:15;;;;;;;4.25;1.90;;;15.60;66.40;;;;;;5113492;28;20036;-75
2022/07/27 02:28:40;;;;;;;2.30;1.20;;;15.50;66.80;;;;;;5113468;28;20035;-75
2022/07/27 02:31:06;;;;;;;2.63;1.42;;;15.50;66.70;;;;;;5113365;28;20036;-74
2022/07/27 02:33:32;;;;;;;2.78;1.40;;;15.60;66.40;;;;;;5113543;28;20026;-75
2022/07/27 02:35:57;;;;;;;2.70;1.45;;;15.60;66.20;;;;;;5113359;28;20065;-75
2022/07/27 02:38:24;;;;;;;3.65;1.20;;;15.50;66.20;;;;;;5113374;28;20075;-75
2022/07/27 02:40:50;;;;;;;1.83;1.40;;;15.50;66.40;;;;;;5113350;28;20020;-75
2022/07/27 02:43:15;;;;;;;3.33;1.60;;;15.40;66.60;;;;;;5113332;28;20020;-75
2022/07/27 02:45:41;;;;;;;2.90;1.48;;;15.40;66.50;;;;;;5113305;28;20525;-75
2022/07/27 02:48:07;;;;;;;3.45;1.63;;;15.30;66.00;;;;;;5113287;28;20036;-75
2022/07/27 02:50:32;;;;;;;2.38;1.50;;;15.20;66.20;;;;;;5116244;28;20028;-75
2022/07/27 02:52:58;;;;;;;2.33;1.45;;;15.20;66.70;;;;;;5117268;28;20050;-75
2022/07/27 02:55:23;;;;;;;4.18;1.30;;;15.20;67.00;;;;;;5099462;28;20031;-75
2022/07/27 02:57:49;;;;;;;2.80;1.40;;;15.10;66.90;;;;;;5117174;28;20028;-75
2022/07/27 03:00:15;;;;;;;2.33;1.50;;;14.90;67.20;;;;;;5099218;28;20031;-75
2022/07/27 03:02:41;;;;;;;4.25;1.55;;;14.80;67.50;;;;;;5117031;28;20039;-75
2022/07/27 03:05:09;;;;;;;2.05;1.40;;;14.60;68.10;;;;;;5117052;28;20024;-75
2022/07/27 03:07:34;;;;;;;2.63;1.45;;;14.50;68.30;;;;;;5116935;28;20028;-75
2022/07/27 03:10:00;;;;;;;2.78;1.58;;;14.40;69.00;;;;;;5116653;28;20099;-75
2022/07/27 03:12:26;;;;;;;2.97;1.40;;;14.40;68.30;;;;;;5099188;28;20028;-75
2022/07/27 03:14:51;;;;;;;2.92;1.35;;;14.50;68.30;;;;;;5116826;28;20035;-75
2022/07/27 03:17:17;;;;;;;3.95;1.80;;;14.40;68.30;;;;;;5116803;28;20020;-75
2022/07/27 03:19:43;;;;;;;3.17;1.60;;;14.20;68.70;;;;;;5116783;28;20016;-75
2022/07/27 03:22:08;;;;;;;3.63;1.55;;;14.00;69.10;;;;;;5116773;28;20479;-75
2022/07/27 03:24:34;;;;;;;4.00;1.75;;;14.00;69.30;;;;;;5116652;28;20051;-75
2022/07/27 03:27:00;;;;;;;3.13;1.33;;;14.00;69.40;;;;;;5098723;28;20035;-75
2022/07/27 03:29:25;;;;;;;2.75;1.50;;;13.90;70.40;;;;;;5116467;28;20083;-75
2022/07/27 03:31:51;;;;;;;5.05;1.88;;;13.90;69.80;;;;;;5116629;28;20111;-76
2022/07/27 03:34:16;;;;;;;1.65;1.27;;;14.00;69.40;;;;;;5116496;28;20044;-75
2022/07/27 03:36:42;;;;;;;2.42;1.23;;;13.80;69.60;;;;;;5116611;28;20029;-75
2022/07/27 03:39:08;;;;;;;4.57;1.65;;;13.80;69.80;;;;;;5098503;28;20028;-74
2022/07/27 03:41:33;;;;;;;6.57;1.63;;;14.00;70.50;;;;;;5098550;28;20032;-75
2022/07/27 03:43:59;;;;;;;4.30;1.90;;;14.10;69.20;;;;;;5116325;28;20092;-74
2022/07/27 03:46:25;;;;;;;2.70;1.33;;;14.20;68.90;;;;;;5116263;28;20032;-75
2022/07/27 03:48:50;;;;;;;3.25;1.63;;;14.00;69.00;;;;;;5116330;28;20043;-75
2022/07/27 03:51:16;;;;;;;4.05;1.50;;;14.10;69.30;;;;;;5116078;28;20028;-74
2022/07/27 03:53:41;;;;;;;3.10;1.40;;;14.20;69.10;;;;;;5116278;28;20020;-74
2022/07/27 03:56:07;;;;;;;3.50;1.75;;;14.30;68.80;;;;;;5116051;28;20028;-74
2022/07/27 03:58:33;;;;;;;4.10;1.70;;;14.20;68.40;;;;;;5116080;28;20024;-75
2022/07/27 04:00:58;;;;;;;3.50;1.58;;;14.00;68.60;;;;;;5114897;28;20039;-75
2022/07/27 04:03:24;;;;;;;3.53;1.42;;;13.80;69.40;;;;;;5116057;28;20024;-74
2022/07/27 04:05:50;;;;;;;2.75;1.63;;;13.80;69.80;;;;;;5115832;28;20471;-74
2022/07/27 04:08:16;;;;;;;2.47;1.60;;;13.70;69.60;;;;;;5115899;28;20031;-74
2022/07/27 04:10:42;;;;;;;2.42;1.15;;;13.60;69.90;;;;;;5115571;28;20056;-74
2022/07/27 04:13:09;;;;;;;2.20;1.63;;;13.50;71.20;;;;;;5115781;28;20023;-75
2022/07/27 04:15:35;;;;;;;3.83;1.80;;;13.50;70.40;;;;;;5115701;28;20065;-75
2022/07/27 04:18:00;;;;;;;3.05;1.77;;;13.60;70.20;;;;;;5115655;28;20024;-75
2022/07/27 04:20:26;;;;;;;3.45;1.60;;;13.70;70.10;;;;;;5115601;28;20032;-74
2022/07/27 04:22:52;;;;;;;3.92;1.60;;;13.80;69.70;;;;;;5115565;28;20028;-74
2022/07/27 04:25:17;;;;;;;2.97;1.63;;;13.70;69.60;;;;;;5115516;28;20038;-75
2022/07/27 04:27:43;;;;;;;5.30;2.05;;;13.80;69.50;;;;;;5115454;28;20115;-75
2022/07/27 04:30:09;;;;;;;4.65;1.65;;;13.90;69.50;;;;;;5097414;28;20020;-75
2022/07/27 04:32:35;;;;;;;2.40;1.50;;;14.00;68.90;;;;;;5115418;28;20036;-74
2022/07/27 04:35:01;;;;;;;4.72;1.77;;;13.90;68.70;;;;;;5115451;28;20046;-74
2022/07/27 04:37:27;;;;;;;3.67;1.60;;;13.90;69.20;;;;;;5115287;28;20088;-75
2022/07/27 04:39:56;;;;;;;3.60;1.60;;;14.00;69.10;;;;;;5115230;28;20028;-74
2022/07/27 04:42:22;;;;;;;4.03;1.90;;;14.00;68.80;;;;;;5115177;28;20062;-74
2022/07/27 04:44:47;;;;;;;4.35;1.98;;;14.00;68.60;;;;;;5115108;28;20468;-74
2022/07/27 04:47:13;;;;;;;3.22;1.65;;;14.00;68.60;;;;;;5115053;28;20031;-74
2022/07/27 04:49:39;;;;;;;3.40;1.50;;;14.00;68.70;;;;;;5115001;28;20040;-75
2022/07/27 04:52:04;;;;;;;2.58;1.58;;;13.80;68.80;;;;;;5096958;28;20032;-74
2022/07/27 04:54:30;;;;;;;3.60;2.05;;;13.80;69.20;;;;;;5114956;28;20099;-74
2022/07/27 04:56:55;;;;;;;2.88;1.85;;;13.70;69.60;;;;;;5115014;28;20032;-75
2022/07/27 04:59:21;;;;;;;2.78;1.88;;;13.70;70.00;;;;;;5114851;28;20032;-74
2022/07/27 05:01:47;;;;;;;3.67;1.48;;;13.80;69.90;;;;;;5096952;28;20047;-75
2022/07/27 05:04:12;;;;;;;3.10;1.90;;;13.90;69.40;;;;;;5114748;28;20035;-74
2022/07/27 05:06:38;;;;;;;3.22;1.88;;;13.90;69.10;;;;;;5114686;28;20100;-75
2022/07/27 05:09:04;;;;;;;4.65;1.90;;;14.00;69.10;;;;;;5114613;28;20043;-75
2022/07/27 05:11:29;;;;;;;3.65;2.20;;;14.00;69.50;;;;;;5114383;28;20047;-75
2022/07/27 05:13:55;;;;;;;4.90;2.00;;;14.00;70.50;;;;;;5114361;28;20387;-75
2022/07/27 05:16:20;;;;;;;3.22;1.95;;;14.10;70.70;;;;;;5114503;28;20025;-74
2022/07/27 05:18:46;;;;;;;5.05;2.20;;;14.20;71.70;;;;;;5114446;28;20028;-75
2022/07/27 05:21:12;;;;;;;5.35;2.78;;;14.20;72.10;;;;;;5114567;28;20024;-75
2022/07/27 05:23:37;;;;;;;7.10;2.63;;;14.40;72.20;;;;;;5114363;28;20036;-75
2022/07/27 05:26:03;;;;;;;5.28;2.83;;;14.50;72.10;;;;;;5114311;28;20036;-75
2022/07/27 05:28:29;;;;;;;7.13;2.72;;;14.60;72.00;;;;;;5114215;28;20032;-74
2022/07/27 05:30:55;;;;;;;5.47;2.50;;;14.70;72.50;;;;;;5114178;28;20032;-75
2022/07/27 05:33:21;;;;;;;4.55;2.70;;;14.70;72.60;;;;;;5114192;28;20023;-75
2022/07/27 05:35:46;;;;;;;4.50;2.50;;;14.80;72.90;;;;;;5114145;28;20028;-75
2022/07/27 05:38:12;;;;;;;4.00;2.42;;;14.80;73.50;;;;;;5096261;28;20028;-75
2022/07/27 05:40:38;;;;;;;6.30;2.70;;;14.90;73.60;;;;;;5114082;28;20032;-75
2022/07/27 05:43:03;;;;;;;6.53;2.70;;;15.00;74.10;;;;;;5114098;28;20028;-75
2022/07/27 05:45:29;;;;;;;4.82;2.72;;;15.10;74.10;;;;;;5114010;28;20028;-75
2022/07/27 05:47:56;;;;;;;5.22;2.85;;;15.20;74.30;;;;;;5113954;28;20020;-74
2022/07/27 05:50:22;;;;;;;5.15;2.42;;;15.30;74.40;;;;;;5113983;28;20024;-74
2022/07/27 05:52:48;;;;;;;6.20;2.40;;;15.40;74.40;;;;;;5113854;28;20032;-74
2022/07/27 05:55:13;;;;;;;4.22;2.10;;;15.50;74.10;;;;;;5095954;28;20021;-74
2022/07/27 05:57:40;;;;;;;6.60;2.40;;;15.70;73.90;;;;;;5113801;28;20020;-74
2022/07/27 06:00:07;;;;;;;8.23;2.25;;;15.70;73.70;;;;;;5113782;28;20024;-75
2022/07/27 06:02:32;;;;;;;5.70;2.17;;;15.80;73.50;;;;;;5113774;28;20081;-75
2022/07/27 06:04:58;;;;;;;3.55;2.08;;;15.90;73.50;;;;;;5113717;28;20024;-74
2022/07/27 06:10:10;;;;;;;2.92;1.73;;;16.10;73.10;;;;;;5113547;28;20096;-74
2022/07/27 06:12:40;;;;;;;4.45;1.92;;;16.20;73.00;;;;;;5113654;28;20086;-74
2022/07/27 06:15:07;;;;;;;4.10;1.98;;;16.30;72.70;;;;;;5113563;28;20048;-75
2022/07/27 06:17:33;;;;;;;3.35;1.77;;;16.30;72.40;;;;;;5113567;28;20016;-75
2022/07/27 06:19:59;;;;;;;6.22;2.50;;;16.30;72.20;;;;;;5113453;28;20024;-74
2022/07/27 06:22:25;;;;;;;6.65;2.30;;;16.40;72.20;;;;;;5095700;28;20076;-74
2022/07/27 06:24:50;;;;;;;4.05;2.05;;;16.50;72.10;;;;;;5099894;28;20032;-74
2022/07/27 06:27:16;;;;;;;3.88;2.00;;;16.50;72.10;;;;;;5102420;28;20024;-74
2022/07/27 06:29:41;;;;;;;2.45;1.85;;;16.60;72.00;;;;;;5120124;28;20376;-74
2022/07/27 06:32:07;;;;;;;3.85;1.90;;;16.70;71.90;;;;;;5120184;28;20039;-75
2022/07/27 06:34:33;;;;;;;4.72;1.92;;;16.70;71.70;;;;;;5120320;28;20028;-74
2022/07/27 06:36:59;;;;;;;4.28;1.85;;;16.80;71.60;;;;;;5120205;28;20020;-74
2022/07/27 06:39:25;;;;;;;5.32;2.15;;;16.80;71.40;;;;;;5120228;28;20020;-74
2022/07/27 06:41:51;;;;;;;4.85;2.50;;;16.90;70.90;;;;;;5102270;28;20024;-74
2022/07/27 06:44:33;;;;;;;4.95;2.40;;;16.90;70.40;;;;;;5120090;28;20039;-75
2022/07/27 06:46:58;;;;;;;6.45;2.20;;;16.90;70.30;;;;;;5120233;28;20058;-75
2022/07/27 06:49:24;;;;;;;3.53;2.22;;;17.00;70.20;;;;;;5120032;28;20036;-75
2022/07/27 06:51:49;;;;;;;4.32;2.33;;;17.00;69.90;;;;;;5102137;28;20044;-75
2022/07/27 06:54:15;;;;;;;3.85;2.15;;;17.00;69.80;;;;;;5102239;28;20032;-75
2022/07/27 06:56:41;;;;;;;3.17;2.10;;;17.10;69.90;;;;;;5119974;28;20023;-75
2022/07/27 06:59:07;;;;;;;3.42;1.98;;;17.10;69.90;;;;;;5119954;28;20080;-75
2022/07/27 07:01:33;;;;;;;3.42;1.80;;;17.10;69.70;;;;;;5119988;28;20028;-75
2022/07/27 07:03:59;;;;;;;7.93;1.85;;;17.20;69.90;;;;;;5119940;28;20035;-75
2022/07/27 07:06:25;;;;;;;11.45;2.03;;;17.20;70.00;;;;;;5102116;28;20048;-75
2022/07/27 07:08:51;;;;;;;5.13;1.45;;;17.30;70.20;;;;;;5102105;28;20032;-75
2022/07/27 07:11:17;;;;;;;2.10;1.40;;;17.40;70.20;;;;;;5101707;28;20111;-75
2022/07/27 07:13:42;;;;;;;4.03;1.30;;;17.40;70.00;;;;;;5101975;28;20095;-75
2022/07/27 07:16:08;;;;;;;3.67;1.00;;;17.40;69.60;;;;;;5119921;28;20061;-75
2022/07/27 07:18:33;;;;;;;4.90;1.27;;;17.40;69.00;;;;;;5119774;28;20103;-75
2022/07/27 07:21:00;;;;;;;2.85;0.95;;;17.40;68.70;;;;;;5119729;28;20083;-75
2022/07/27 07:23:26;;;;;;;2.10;0.90;;;17.50;68.70;;;;;;5119727;28;20079;-76
2022/07/27 07:25:51;;;;;;;4.57;1.10;;;17.50;68.60;;;;;;5119691;28;20032;-76
2022/07/27 07:28:20;;;;;;;3.72;1.10;;;17.50;68.80;;;;;;5101697;28;20028;-76
2022/07/27 07:30:47;;;;;;;1.50;1.00;;;17.60;68.90;;;;;;5119706;28;20035;-76
2022/07/27 07:33:13;;;;;;;2.10;1.10;;;17.60;68.80;;;;;;5101724;28;20035;-75
2022/07/27 07:35:38;;;;;;;2.05;0.90;;;17.60;68.70;;;;;;5118356;28;20032;-76
2022/07/27 07:38:04;;;;;;;2.40;1.08;;;17.60;68.70;;;;;;5116386;28;20042;-71
2022/07/27 07:40:30;;;;;;;1.85;1.13;;;17.70;68.60;;;;;;5116376;28;20031;-71
2022/07/27 07:43:00;;;;;;;3.90;1.30;;;17.80;68.40;;;;;;5098583;28;20050;-71
2022/07/27 07:45:27;;;;;;;4.47;1.05;;;17.70;68.10;;;;;;5116359;28;20020;-72
2022/07/27 07:47:53;;;;;;;3.60;1.08;;;17.80;68.10;;;;;;5116253;28;20027;-71
2022/07/27 07:50:20;;;;;;;2.53;0.90;;;17.80;68.00;;;;;;5116129;28;20050;-71
2022/07/27 07:52:50;;;;;;;2.30;1.00;;;17.90;67.70;;;;;;5116065;28;20031;-71
2022/07/27 07:55:19;;;;;;;4.65;1.00;;;17.90;67.50;;;;;;5098176;28;20016;-71
2022/07/27 07:57:45;;;;;;;4.72;1.25;;;18.00;67.30;;;;;;5116076;28;20024;-71
2022/07/27 08:00:11;;;;;;;1.60;1.10;;;18.10;67.00;;;;;;5116006;28;20050;-71
2022/07/27 08:02:48;;;;;;;3.15;0.82;;;18.10;66.60;;;;;;5115964;28;20035;-71
2022/07/27 08:05:14;;;;;;;6.50;2.75;;;18.20;65.90;;;;;;5115821;28;20024;-71
2022/07/27 08:07:41;;;;;;;6.40;2.95;;;18.20;65.80;;;;;;5115739;28;20028;-72
2022/07/27 08:10:08;;;;;;;1.40;0.77;;;18.30;66.10;;;;;;5094248;28;20032;-70
2022/07/27 08:12:36;;;;;;;3.03;0.73;;;18.40;65.60;;;;;;5095344;28;20031;-71
2022/07/27 08:15:02;;;;;;;3.72;0.90;;;18.50;64.70;;;;;;5095161;28;20024;-68
2022/07/27 08:17:28;;;;;;;2.30;0.88;;;18.50;64.70;;;;;;5094991;28;20091;-70
2022/07/27 08:19:53;;;;;;;1.83;0.80;;;18.50;64.40;;;;;;5093997;28;20032;-69
2022/07/27 08:22:19;;;;;;;5.82;0.80;;;18.60;63.90;;;;;;5095195;28;20596;-69
2022/07/27 08:24:45;;;;;;;1.85;0.70;;;18.70;63.70;;;;;;5077410;28;20032;-69
2022/07/27 08:27:10;;;;;;;3.63;0.50;;;18.80;63.50;;;;;;5094237;28;20028;-69
2022/07/27 08:29:36;;;;;;;5.68;0.80;;;18.80;62.90;;;;;;5095007;28;20029;-69
2022/07/27 08:32:02;;;;;;;2.30;0.70;;;18.80;62.90;;;;;;5077393;28;20024;-69
2022/07/27 08:34:28;;;;;;;3.47;0.90;;;18.80;62.10;;;;;;5094040;28;20035;-69
2022/07/27 08:36:54;;;;;;;2.17;0.80;;;18.90;61.90;;;;;;5077191;28;20024;-69
2022/07/27 08:39:19;;;;;;;2.30;0.73;;;18.90;62.70;;;;;;5094088;28;20095;-69
2022/07/27 08:41:45;;;;;;;3.28;1.08;;;18.90;61.50;;;;;;5093911;28;20062;-69
2022/07/27 08:44:13;;;;;;;5.38;1.02;;;19.00;61.50;;;;;;5093796;28;20028;-69
2022/07/27 08:46:41;;;;;;;2.25;0.98;;;19.00;61.30;;;;;;5094309;28;20080;-68
2022/07/27 08:49:07;;;;;;;2.03;0.70;;;19.10;61.50;;;;;;5077388;28;20020;-68
2022/07/27 08:51:33;;;;;;;3.50;1.05;;;19.20;61.70;;;;;;5094613;28;20032;-68
2022/07/27 08:54:00;;;;;;;2.67;1.02;;;19.20;61.30;;;;;;5094590;28;20076;-68
2022/07/27 08:56:26;;;;;;;1.65;0.80;;;19.30;61.40;;;;;;5094549;28;20120;-67
2022/07/27 08:58:52;;;;;;;2.47;1.02;;;19.40;61.40;;;;;;5093557;28;20100;-68
2022/07/27 09:01:55;;;;;;;2.90;0.75;;;19.50;61.10;;;;;;5094361;28;20044;-68
2022/07/27 09:05:43;;;;;;;;;;;19.50;59.80;;;;;;5056657;28;20049;-67
2022/07/27 09:07:37;;;;;;;2.42;0.90;;;19.60;59.90;;;;;;5055436;28;19990;-67
2022/07/27 09:10:25;;;;;;;1.30;0.77;;;19.60;59.50;;;;;;5039045;28;20045;-68
2022/07/27 09:12:54;;;;;;;2.25;0.90;;;19.60;59.00;;;;;;5041994;28;20025;-67
2022/07/27 09:15:20;;;;;;;1.55;0.60;;;19.70;58.60;;;;;;5055705;28;20108;-67
2022/07/27 09:17:48;;;;;;;3.70;0.70;;;19.70;58.00;;;;;;5072361;28;20040;-68
2022/07/27 09:20:20;;;;;;;1.38;0.50;;;19.80;57.80;;;;;;5072287;28;20033;-67
2022/07/27 09:22:51;;;;;;;3.10;0.88;;;19.90;57.50;;;;;;5072397;28;20033;-67
2022/07/27 09:25:25;;;;;;;4.50;1.00;;;20.00;57.50;;;;;;5072250;28;20039;-67
2022/07/27 09:27:56;;;;;;;2.08;0.65;;;20.10;56.60;;;;;;5055621;28;20053;-68
2022/07/27 09:30:23;;;;;;;2.35;0.60;;;20.10;56.10;;;;;;5055294;28;20105;-67
2022/07/27 09:33:00;;;;;;;2.10;0.77;;;20.10;55.20;;;;;;5038833;28;20057;-67
2022/07/27 09:35:29;;;;;;;1.67;0.50;;;20.20;55.40;;;;;;5083974;28;20047;-67
2022/07/27 09:38:22;;;;;;;3.47;0.82;;;20.20;55.10;;;;;;5092775;28;20016;-67
2022/07/27 09:41:02;;;;;;;3.08;0.65;;;20.30;55.00;;;;;;5093832;28;20024;-67
2022/07/27 09:43:28;;;;;;;20.55;9.15;;;20.40;54.20;;;;;;5092687;28;20024;-68
2022/07/27 09:45:54;;;;;;;6.72;3.15;;;20.40;53.80;;;;;;5075843;28;20095;-68
2022/07/27 09:48:22;;;;;;;3.30;0.93;;;20.50;53.70;;;;;;5092287;28;20037;-68
2022/07/27 09:50:57;;;;;;;2.58;1.10;;;20.60;54.00;;;;;;5092581;28;20032;-68
2022/07/27 09:53:25;;;;;;;1.85;0.60;;;20.60;50.80;;;;;;5092570;28;20020;-68
2022/07/27 09:56:12;;;;;;;4.20;0.70;;;20.60;52.50;;;;;;5093440;28;20020;-68
2022/07/27 09:58:50;;;;;;;5.47;0.80;;;20.70;51.40;;;;;;5092808;28;20490;-68
2022/07/27 10:01:21;;;;;;;2.90;0.75;;;20.60;52.00;;;;;;5093602;28;20040;-69
2022/07/27 10:03:51;;;;;;;0.77;0.47;;;20.70;53.30;;;;;;5093613;28;20039;-68
2022/07/27 10:06:17;;;;;;;4.75;1.23;;;20.80;52.60;;;;;;5092566;28;20031;-69
2022/07/27 10:08:45;;;;;;;2.33;0.73;;;21.00;52.20;;;;;;5093403;28;20021;-69
2022/07/27 10:11:12;;;;;;;2.30;0.70;;;21.10;50.90;;;;;;5107351;28;20048;-68
2022/07/27 10:13:38;;;;;;;1.30;0.55;;;21.10;49.40;;;;;;5113630;28;20088;-68
2022/07/27 10:16:06;;;;;;;1.65;0.73;;;21.10;48.00;;;;;;5113543;28;20051;-68
2022/07/27 10:18:40;;;;;;;2.75;0.70;;;20.80;47.20;;;;;;5113516;28;20024;-68
2022/07/27 10:21:08;;;;;;;1.48;0.60;;;20.80;49.30;;;;;;5113570;28;20067;-68
2022/07/27 10:23:37;;;;;;;1.80;0.73;;;20.90;50.00;;;;;;5095410;28;20024;-68
2022/07/27 10:26:19;;;;;;;2.00;0.85;;;21.00;49.30;;;;;;5113446;28;20020;-69
2022/07/27 10:29:13;;;;;;;1.73;0.80;;;21.10;48.90;;;;;;5113439;28;20386;-69
2022/07/27 10:31:51;;;;;;;1.08;0.70;;;21.30;48.30;;;;;;5113422;28;20030;-68
2022/07/27 10:34:32;;;;;;;3.80;0.90;;;21.40;48.30;;;;;;5113422;28;20078;-69
2022/07/27 10:37:10;;;;;;;3.33;0.70;;;21.40;47.10;;;;;;5113361;28;20134;-68
2022/07/27 10:42:45;;;;;;;2.72;0.95;;;21.60;48.30;;;;;;5113310;28;20043;-68
2022/07/27 10:45:13;;;;;;;3.22;0.80;;;21.70;48.40;;;;;;5113091;28;20024;-69
2022/07/27 10:47:44;;;;;;;1.05;0.68;;;21.80;48.60;;;;;;5113180;28;20062;-69
2022/07/27 10:50:16;;;;;;;1.85;0.73;;;21.80;48.70;;;;;;5112878;28;20076;-68
2022/07/27 10:52:56;;;;;;;4.43;1.05;;;21.80;48.30;;;;;;5112962;28;20016;-69
2022/07/27 10:55:36;;;;;;;2.05;0.70;;;21.70;47.70;;;;;;5112845;28;20020;-69
2022/07/27 10:58:08;;;;;;;1.40;0.90;;;21.80;48.10;;;;;;5113102;28;20024;-69
2022/07/27 11:00:49;;;;;;;3.65;1.05;;;21.90;47.70;;;;;;5113087;28;20073;-68
2022/07/27 11:03:23;;;;;;;2.95;1.10;;;21.90;46.50;;;;;;5094962;28;20032;-68
2022/07/27 11:06:06;;;;;;;2.83;1.08;;;21.90;47.80;;;;;;5112919;28;20039;-68
2022/07/27 11:08:37;;;;;;;2.22;0.70;;;22.00;46.90;;;;;;5112941;28;20024;-68
2022/07/27 11:11:04;;;;;;;1.23;0.50;;;22.10;45.80;;;;;;5114777;28;20130;-68
2022/07/27 11:13:30;;;;;;;2.53;0.90;;;22.10;45.80;;;;;;5116722;28;20078;-69
2022/07/27 11:15:59;;;;;;;3.42;1.00;;;22.10;44.90;;;;;;5116679;28;20020;-69
2022/07/27 11:18:27;;;;;;;2.05;0.68;;;22.20;44.70;;;;;;5116682;28;20470;-68
2022/07/27 11:21:11;;;;;;;4.10;1.48;;;22.20;43.90;;;;;;5116780;28;20051;-69
2022/07/27 11:23:36;;;;;;;1.63;0.95;;;22.20;42.50;;;;;;5116796;28;20028;-68
2022/07/27 11:26:02;;;;;;;1.67;0.80;;;22.20;43.60;;;;;;5116650;28;20029;-68
2022/07/27 11:28:32;;;;;;;4.28;0.77;;;22.30;44.50;;;;;;5116547;28;20042;-68
2022/07/27 11:30:59;;;;;;;1.30;0.70;;;22.40;43.90;;;;;;5116487;28;20035;-69
2022/07/27 11:33:25;;;;;;;2.10;0.70;;;22.50;43.60;;;;;;5116505;28;20024;-69
2022/07/27 11:35:57;;;;;;;3.42;0.85;;;22.60;43.40;;;;;;5116507;28;20020;-69
2022/07/27 11:38:22;;;;;;;4.53;0.80;;;22.70;42.50;;;;;;5116347;28;20048;-68
2022/07/27 11:40:50;;;;;;;1.55;0.90;;;22.60;41.80;;;;;;5116390;28;20031;-69
2022/07/27 11:43:41;;;;;;;3.30;0.80;;;22.50;42.00;;;;;;5116374;28;20413;-68
2022/07/27 11:46:23;;;;;;;3.03;1.05;;;22.40;42.10;;;;;;5116366;28;20081;-69
2022/07/27 11:48:53;;;;;;;2.13;0.73;;;22.40;42.70;;;;;;5116266;28;20059;-69
2022/07/27 11:51:19;;;;;;;3.28;0.80;;;22.40;43.30;;;;;;5116109;28;20286;-69
2022/07/27 11:53:45;;;;;;;2.25;1.02;;;22.30;43.20;;;;;;5098530;28;20070;-69
2022/07/27 11:56:19;;;;;;;1.77;0.90;;;22.30;43.00;;;;;;5116057;28;20027;-69
2022/07/27 11:59:02;;;;;;;2.50;1.00;;;22.30;43.50;;;;;;5116093;28;20020;-69
2022/07/27 12:01:32;;;;;;;2.10;0.95;;;22.40;43.40;;;;;;5116032;28;20032;-69
2022/07/27 12:04:09;;;;;;;2.97;1.10;;;22.40;42.90;;;;;;5116040;28;20020;-69
2022/07/27 12:06:37;;;;;;;2.80;0.95;;;22.50;42.20;;;;;;5116034;28;20048;-69
2022/07/27 12:09:05;;;;;;;3.42;1.08;;;22.70;41.80;;;;;;5115818;28;20028;-69
2022/07/27 12:11:59;;;;;;;2.03;0.90;;;22.80;41.20;;;;;;5115571;28;20044;-69
2022/07/27 12:14:35;;;;;;;1.35;0.70;;;22.90;41.40;;;;;;5115801;28;20030;-69
2022/07/27 12:17:07;;;;;;;1.63;0.60;;;23.00;40.20;;;;;;5115709;28;20076;-69
2022/07/27 12:19:33;;;;;;;2.38;1.10;;;23.00;41.60;;;;;;5115670;28;20021;-69
2022/07/27 12:21:58;;;;;;;3.35;0.85;;;23.20;41.90;;;;;;5114693;28;20497;-69
2022/07/27 12:24:38;;;;;;;1.55;0.82;;;23.30;41.40;;;;;;5097658;28;20035;-69
2022/07/27 12:27:07;;;;;;;2.83;0.75;;;23.40;41.30;;;;;;5115374;28;20024;-69
2022/07/27 12:29:52;;;;;;;4.78;1.00;;;23.40;38.70;;;;;;5115280;28;20031;-69
2022/07/27 12:32:18;;;;;;;1.80;1.00;;;23.40;39.60;;;;;;5115361;28;20032;-69
2022/07/27 12:34:43;;;;;;;2.33;0.90;;;23.50;39.60;;;;;;5097555;28;20109;-69
2022/07/27 12:37:11;;;;;;;1.10;0.70;;;23.50;40.00;;;;;;5097394;28;20016;-69
2022/07/27 12:39:37;;;;;;;2.47;0.88;;;23.50;39.80;;;;;;5115304;28;20024;-69
2022/07/27 12:42:08;;;;;;;1.60;0.70;;;23.40;40.60;;;;;;5115055;28;20111;-69
2022/07/27 12:44:35;;;;;;;3.30;0.77;;;23.30;39.80;;;;;;5115243;28;20016;-69
2022/07/27 12:47:39;;;;;;;3.08;0.73;;;23.20;41.20;;;;;;5115007;28;20020;-69
2022/07/27 12:50:19;;;;;;;5.03;1.33;;;23.20;41.70;;;;;;5114888;28;20066;-69
2022/07/27 12:52:50;;;;;;;2.00;0.90;;;23.20;42.00;;;;;;5099894;28;20047;-69
2022/07/27 12:55:17;;;;;;;2.05;0.95;;;23.10;41.80;;;;;;5115015;28;20043;-69
2022/07/27 12:57:43;;;;;;;2.30;0.90;;;23.00;41.90;;;;;;5115039;28;20024;-69
2022/07/27 13:00:12;;;;;;;5.22;0.90;;;23.00;41.90;;;;;;5114860;28;20028;-68
2022/07/27 13:02:38;;;;;;;6.05;1.08;;;23.00;41.90;;;;;;5114825;28;20048;-68